Nearby METAR Reports

 

NZCH - Christchurch Int, New Zealand
Distance from station: W 10km
Updated: 29 Feb 2020 17:30
Mostly cloudy
Mostly cloudy
 Wind from NE
Wind: NE 17 km/h
Temperature: 19°C
Dew Point: 8°C
Humidity: 49%
Barometer: 1017 hPa
Clouds: Mostly cloudy
Visibility: 10 km
Cloud details: Mostly cloudy 1524 m
2020/02/29 04:30 NZCH 290430Z AUTO 04009KT 9999 BKN050/// 19/08 Q1017 NOSIG